sensor_id;sensor_type;location;lat;lon;timestamp;P1;durP1;ratioP1;P2;durP2;ratioP2
11590;SDS011;5851;54.050;9.974;2023-07-09T00:01:43;3.53;;;3.15;;
11590;SDS011;5851;54.050;9.974;2023-07-09T00:04:11;4.45;;;3.20;;
11590;SDS011;5851;54.050;9.974;2023-07-09T00:06:38;4.53;;;3.30;;
11590;SDS011;5851;54.050;9.974;2023-07-09T00:09:06;5.63;;;3.40;;
11590;SDS011;5851;54.050;9.974;2023-07-09T00:11:39;4.75;;;3.30;;
11590;SDS011;5851;54.050;9.974;2023-07-09T00:14:07;5.20;;;3.28;;
11590;SDS011;5851;54.050;9.974;2023-07-09T00:16:34;5.18;;;3.25;;
11590;SDS011;5851;54.050;9.974;2023-07-09T00:19:02;3.53;;;2.95;;
11590;SDS011;5851;54.050;9.974;2023-07-09T00:21:30;5.88;;;2.92;;
11590;SDS011;5851;54.050;9.974;2023-07-09T00:23:59;3.53;;;3.15;;
11590;SDS011;5851;54.050;9.974;2023-07-09T00:26:29;6.45;;;3.13;;
11590;SDS011;5851;54.050;9.974;2023-07-09T00:28:57;4.95;;;3.05;;
11590;SDS011;5851;54.050;9.974;2023-07-09T00:31:24;4.18;;;3.10;;
11590;SDS011;5851;54.050;9.974;2023-07-09T00:33:52;5.03;;;3.08;;
11590;SDS011;5851;54.050;9.974;2023-07-09T00:36:22;3.45;;;3.13;;
11590;SDS011;5851;54.050;9.974;2023-07-09T00:38:54;3.72;;;2.97;;
11590;SDS011;5851;54.050;9.974;2023-07-09T00:41:24;4.57;;;3.10;;
11590;SDS011;5851;54.050;9.974;2023-07-09T00:43:53;6.07;;;3.13;;
11590;SDS011;5851;54.050;9.974;2023-07-09T00:49:29;4.80;;;3.10;;
11590;SDS011;5851;54.050;9.974;2023-07-09T00:52:00;3.40;;;3.05;;
11590;SDS011;5851;54.050;9.974;2023-07-09T00:54:31;5.50;;;3.20;;
11590;SDS011;5851;54.050;9.974;2023-07-09T00:57:03;5.38;;;3.00;;
11590;SDS011;5851;54.050;9.974;2023-07-09T00:59:33;4.90;;;2.90;;
11590;SDS011;5851;54.050;9.974;2023-07-09T01:02:00;4.95;;;3.00;;
11590;SDS011;5851;54.050;9.974;2023-07-09T01:04:27;4.70;;;2.97;;
11590;SDS011;5851;54.050;9.974;2023-07-09T01:06:56;5.22;;;2.90;;
11590;SDS011;5851;54.050;9.974;2023-07-09T01:09:23;3.35;;;2.80;;
11590;SDS011;5851;54.050;9.974;2023-07-09T01:11:52;3.28;;;2.60;;
11590;SDS011;5851;54.050;9.974;2023-07-09T01:14:21;3.78;;;3.33;;
11590;SDS011;5851;54.050;9.974;2023-07-09T01:16:52;3.92;;;3.00;;
11590;SDS011;5851;54.050;9.974;2023-07-09T01:19:23;3.70;;;3.05;;
11590;SDS011;5851;54.050;9.974;2023-07-09T01:21:55;3.63;;;2.70;;
11590;SDS011;5851;54.050;9.974;2023-07-09T01:27:19;3.53;;;2.83;;
11590;SDS011;5851;54.050;9.974;2023-07-09T01:29:47;4.70;;;3.05;;
11590;SDS011;5851;54.050;9.974;2023-07-09T01:32:15;4.97;;;3.10;;
11590;SDS011;5851;54.050;9.974;2023-07-09T01:34:44;3.58;;;2.80;;
11590;SDS011;5851;54.050;9.974;2023-07-09T01:37:14;3.40;;;2.83;;
11590;SDS011;5851;54.050;9.974;2023-07-09T01:39:42;3.15;;;2.80;;
11590;SDS011;5851;54.050;9.974;2023-07-09T01:42:09;4.10;;;3.10;;
11590;SDS011;5851;54.050;9.974;2023-07-09T01:44:36;2.97;;;2.67;;
11590;SDS011;5851;54.050;9.974;2023-07-09T01:47:04;4.70;;;2.80;;
11590;SDS011;5851;54.050;9.974;2023-07-09T01:49:31;4.82;;;3.08;;
11590;SDS011;5851;54.050;9.974;2023-07-09T01:51:59;3.10;;;2.80;;
11590;SDS011;5851;54.050;9.974;2023-07-09T01:54:28;5.07;;;2.90;;
11590;SDS011;5851;54.050;9.974;2023-07-09T01:59:26;3.38;;;2.90;;
11590;SDS011;5851;54.050;9.974;2023-07-09T02:01:53;3.30;;;3.00;;
11590;SDS011;5851;54.050;9.974;2023-07-09T02:04:22;5.03;;;2.75;;
11590;SDS011;5851;54.050;9.974;2023-07-09T02:06:53;3.85;;;2.65;;
11590;SDS011;5851;54.050;9.974;2023-07-09T02:09:20;5.65;;;2.85;;
11590;SDS011;5851;54.050;9.974;2023-07-09T02:11:48;5.43;;;3.10;;
11590;SDS011;5851;54.050;9.974;2023-07-09T02:14:15;3.05;;;2.75;;
11590;SDS011;5851;54.050;9.974;2023-07-09T02:16:42;4.63;;;2.97;;
11590;SDS011;5851;54.050;9.974;2023-07-09T02:19:09;4.47;;;3.00;;
11590;SDS011;5851;54.050;9.974;2023-07-09T02:21:36;3.10;;;2.80;;
11590;SDS011;5851;54.050;9.974;2023-07-09T02:24:03;4.25;;;3.10;;
11590;SDS011;5851;54.050;9.974;2023-07-09T02:26:30;5.65;;;3.28;;
11590;SDS011;5851;54.050;9.974;2023-07-09T02:28:59;4.80;;;3.00;;
11590;SDS011;5851;54.050;9.974;2023-07-09T02:31:25;3.83;;;2.70;;
11590;SDS011;5851;54.050;9.974;2023-07-09T02:33:55;3.47;;;2.80;;
11590;SDS011;5851;54.050;9.974;2023-07-09T02:36:22;3.03;;;2.70;;
11590;SDS011;5851;54.050;9.974;2023-07-09T02:38:50;4.03;;;3.20;;
11590;SDS011;5851;54.050;9.974;2023-07-09T02:41:17;4.90;;;2.87;;
11590;SDS011;5851;54.050;9.974;2023-07-09T02:43:44;5.68;;;3.03;;
11590;SDS011;5851;54.050;9.974;2023-07-09T02:46:12;4.85;;;2.92;;
11590;SDS011;5851;54.050;9.974;2023-07-09T02:48:39;4.03;;;2.80;;
11590;SDS011;5851;54.050;9.974;2023-07-09T02:51:06;3.55;;;2.90;;
11590;SDS011;5851;54.050;9.974;2023-07-09T02:53:32;3.53;;;2.80;;
11590;SDS011;5851;54.050;9.974;2023-07-09T02:55:59;3.27;;;2.67;;
11590;SDS011;5851;54.050;9.974;2023-07-09T02:58:26;4.20;;;3.13;;
11590;SDS011;5851;54.050;9.974;2023-07-09T03:00:53;3.83;;;2.80;;
11590;SDS011;5851;54.050;9.974;2023-07-09T03:03:21;3.92;;;2.75;;
11590;SDS011;5851;54.050;9.974;2023-07-09T03:05:48;4.57;;;2.80;;
11590;SDS011;5851;54.050;9.974;2023-07-09T03:08:15;3.60;;;2.75;;
11590;SDS011;5851;54.050;9.974;2023-07-09T03:10:42;3.70;;;2.97;;
11590;SDS011;5851;54.050;9.974;2023-07-09T03:13:09;3.17;;;2.88;;
11590;SDS011;5851;54.050;9.974;2023-07-09T03:15:36;3.92;;;3.08;;
11590;SDS011;5851;54.050;9.974;2023-07-09T03:18:03;4.97;;;3.13;;
11590;SDS011;5851;54.050;9.974;2023-07-09T03:20:31;3.80;;;3.13;;
11590;SDS011;5851;54.050;9.974;2023-07-09T03:22:58;4.32;;;3.03;;
11590;SDS011;5851;54.050;9.974;2023-07-09T03:25:25;3.27;;;2.90;;
11590;SDS011;5851;54.050;9.974;2023-07-09T03:27:52;3.88;;;2.90;;
11590;SDS011;5851;54.050;9.974;2023-07-09T03:30:19;3.67;;;2.93;;
11590;SDS011;5851;54.050;9.974;2023-07-09T03:32:46;3.05;;;2.75;;
11590;SDS011;5851;54.050;9.974;2023-07-09T03:35:13;4.38;;;2.95;;
11590;SDS011;5851;54.050;9.974;2023-07-09T03:37:41;3.00;;;2.50;;
11590;SDS011;5851;54.050;9.974;2023-07-09T03:40:09;5.97;;;3.13;;
11590;SDS011;5851;54.050;9.974;2023-07-09T03:42:37;3.13;;;2.83;;
11590;SDS011;5851;54.050;9.974;2023-07-09T03:45:04;4.18;;;2.97;;
11590;SDS011;5851;54.050;9.974;2023-07-09T03:47:31;4.80;;;2.92;;
11590;SDS011;5851;54.050;9.974;2023-07-09T03:49:58;3.27;;;2.97;;
11590;SDS011;5851;54.050;9.974;2023-07-09T03:52:25;3.55;;;2.60;;
11590;SDS011;5851;54.050;9.974;2023-07-09T03:54:53;4.22;;;2.80;;
11590;SDS011;5851;54.050;9.974;2023-07-09T03:57:21;4.90;;;3.20;;
11590;SDS011;5851;54.050;9.974;2023-07-09T03:59:48;3.97;;;3.23;;
11590;SDS011;5851;54.050;9.974;2023-07-09T04:02:15;3.95;;;3.10;;
11590;SDS011;5851;54.050;9.974;2023-07-09T04:04:42;2.73;;;2.53;;
11590;SDS011;5851;54.050;9.974;2023-07-09T04:07:09;4.27;;;2.80;;
11590;SDS011;5851;54.050;9.974;2023-07-09T04:09:36;3.20;;;2.90;;
11590;SDS011;5851;54.050;9.974;2023-07-09T04:12:04;4.23;;;2.80;;
11590;SDS011;5851;54.050;9.974;2023-07-09T04:14:32;3.10;;;2.80;;
11590;SDS011;5851;54.050;9.974;2023-07-09T04:16:59;3.17;;;2.87;;
11590;SDS011;5851;54.050;9.974;2023-07-09T04:19:26;3.57;;;2.87;;
11590;SDS011;5851;54.050;9.974;2023-07-09T04:21:53;3.43;;;2.90;;
11590;SDS011;5851;54.050;9.974;2023-07-09T04:24:20;3.30;;;2.80;;
11590;SDS011;5851;54.050;9.974;2023-07-09T04:26:48;4.93;;;3.20;;
11590;SDS011;5851;54.050;9.974;2023-07-09T04:29:16;4.03;;;2.70;;
11590;SDS011;5851;54.050;9.974;2023-07-09T04:31:43;3.40;;;2.60;;
11590;SDS011;5851;54.050;9.974;2023-07-09T04:34:10;4.17;;;2.93;;
11590;SDS011;5851;54.050;9.974;2023-07-09T04:36:37;4.70;;;3.00;;
11590;SDS011;5851;54.050;9.974;2023-07-09T04:39:04;3.50;;;2.90;;
11590;SDS011;5851;54.050;9.974;2023-07-09T04:41:31;3.75;;;2.90;;
11590;SDS011;5851;54.050;9.974;2023-07-09T04:43:59;2.85;;;2.53;;
11590;SDS011;5851;54.050;9.974;2023-07-09T04:46:27;3.20;;;2.83;;
11590;SDS011;5851;54.050;9.974;2023-07-09T04:48:54;3.53;;;3.00;;
11590;SDS011;5851;54.050;9.974;2023-07-09T04:51:21;2.80;;;2.60;;
11590;SDS011;5851;54.050;9.974;2023-07-09T04:53:49;4.55;;;2.80;;
11590;SDS011;5851;54.050;9.974;2023-07-09T04:56:17;3.47;;;2.85;;
11590;SDS011;5851;54.050;9.974;2023-07-09T04:58:44;3.60;;;2.70;;
11590;SDS011;5851;54.050;9.974;2023-07-09T05:01:11;4.17;;;2.90;;
11590;SDS011;5851;54.050;9.974;2023-07-09T05:03:39;4.37;;;3.10;;
11590;SDS011;5851;54.050;9.974;2023-07-09T05:06:06;4.20;;;3.00;;
11590;SDS011;5851;54.050;9.974;2023-07-09T05:08:33;3.97;;;2.88;;
11590;SDS011;5851;54.050;9.974;2023-07-09T05:11:00;4.93;;;3.47;;
11590;SDS011;5851;54.050;9.974;2023-07-09T05:13:27;2.73;;;2.53;;
11590;SDS011;5851;54.050;9.974;2023-07-09T05:15:54;5.37;;;3.00;;
11590;SDS011;5851;54.050;9.974;2023-07-09T05:18:21;4.87;;;3.20;;
11590;SDS011;5851;54.050;9.974;2023-07-09T05:20:50;3.63;;;2.80;;
11590;SDS011;5851;54.050;9.974;2023-07-09T05:23:17;4.47;;;3.23;;
11590;SDS011;5851;54.050;9.974;2023-07-09T05:25:44;3.63;;;2.83;;
11590;SDS011;5851;54.050;9.974;2023-07-09T05:28:11;4.73;;;3.03;;
11590;SDS011;5851;54.050;9.974;2023-07-09T05:30:40;3.10;;;2.80;;
11590;SDS011;5851;54.050;9.974;2023-07-09T05:33:08;3.43;;;3.00;;
11590;SDS011;5851;54.050;9.974;2023-07-09T05:35:34;3.47;;;3.05;;
11590;SDS011;5851;54.050;9.974;2023-07-09T05:38:03;4.50;;;3.00;;
11590;SDS011;5851;54.050;9.974;2023-07-09T05:40:30;4.70;;;3.30;;
11590;SDS011;5851;54.050;9.974;2023-07-09T05:42:56;3.80;;;3.00;;
11590;SDS011;5851;54.050;9.974;2023-07-09T05:45:23;3.50;;;3.20;;
11590;SDS011;5851;54.050;9.974;2023-07-09T05:47:50;3.97;;;3.50;;
11590;SDS011;5851;54.050;9.974;2023-07-09T05:50:17;3.83;;;3.00;;
11590;SDS011;5851;54.050;9.974;2023-07-09T05:52:44;4.07;;;3.10;;
11590;SDS011;5851;54.050;9.974;2023-07-09T05:55:12;3.20;;;2.90;;
11590;SDS011;5851;54.050;9.974;2023-07-09T05:57:39;3.30;;;2.87;;
11590;SDS011;5851;54.050;9.974;2023-07-09T06:00:06;5.70;;;3.10;;
11590;SDS011;5851;54.050;9.974;2023-07-09T06:02:34;3.60;;;2.83;;
11590;SDS011;5851;54.050;9.974;2023-07-09T06:05:01;3.40;;;2.90;;
11590;SDS011;5851;54.050;9.974;2023-07-09T06:07:28;3.30;;;3.00;;
11590;SDS011;5851;54.050;9.974;2023-07-09T06:09:55;3.27;;;2.97;;
11590;SDS011;5851;54.050;9.974;2023-07-09T06:12:24;3.10;;;2.80;;
11590;SDS011;5851;54.050;9.974;2023-07-09T06:14:51;3.45;;;2.83;;
11590;SDS011;5851;54.050;9.974;2023-07-09T06:17:17;4.85;;;3.10;;
11590;SDS011;5851;54.050;9.974;2023-07-09T06:19:45;4.25;;;2.92;;
11590;SDS011;5851;54.050;9.974;2023-07-09T06:22:12;3.20;;;2.90;;
11590;SDS011;5851;54.050;9.974;2023-07-09T06:24:38;3.38;;;2.95;;
11590;SDS011;5851;54.050;9.974;2023-07-09T06:27:05;4.15;;;3.05;;
11590;SDS011;5851;54.050;9.974;2023-07-09T06:29:34;4.50;;;2.90;;
11590;SDS011;5851;54.050;9.974;2023-07-09T06:32:01;3.50;;;2.83;;
11590;SDS011;5851;54.050;9.974;2023-07-09T06:34:28;4.63;;;2.70;;
11590;SDS011;5851;54.050;9.974;2023-07-09T06:36:56;7.63;;;2.90;;
11590;SDS011;5851;54.050;9.974;2023-07-09T06:39:23;4.05;;;2.88;;
11590;SDS011;5851;54.050;9.974;2023-07-09T06:41:50;4.15;;;3.08;;
11590;SDS011;5851;54.050;9.974;2023-07-09T06:44:17;3.78;;;3.13;;
11590;SDS011;5851;54.050;9.974;2023-07-09T06:46:45;4.50;;;2.90;;
11590;SDS011;5851;54.050;9.974;2023-07-09T06:49:13;4.18;;;3.33;;
11590;SDS011;5851;54.050;9.974;2023-07-09T06:51:40;3.08;;;2.72;;
11590;SDS011;5851;54.050;9.974;2023-07-09T06:54:07;3.63;;;2.88;;
11590;SDS011;5851;54.050;9.974;2023-07-09T06:56:35;3.17;;;2.88;;
11590;SDS011;5851;54.050;9.974;2023-07-09T06:59:02;7.00;;;3.15;;
11590;SDS011;5851;54.050;9.974;2023-07-09T07:01:29;4.50;;;3.20;;
11590;SDS011;5851;54.050;9.974;2023-07-09T07:03:57;6.57;;;3.40;;
11590;SDS011;5851;54.050;9.974;2023-07-09T07:06:25;3.83;;;3.20;;
11590;SDS011;5851;54.050;9.974;2023-07-09T07:08:52;4.03;;;3.25;;
11590;SDS011;5851;54.050;9.974;2023-07-09T07:11:19;3.90;;;2.78;;
11590;SDS011;5851;54.050;9.974;2023-07-09T07:13:47;3.47;;;2.88;;
11590;SDS011;5851;54.050;9.974;2023-07-09T07:16:16;3.33;;;2.65;;
11590;SDS011;5851;54.050;9.974;2023-07-09T07:18:43;4.00;;;2.88;;
11590;SDS011;5851;54.050;9.974;2023-07-09T07:21:12;3.70;;;3.35;;
11590;SDS011;5851;54.050;9.974;2023-07-09T07:23:38;4.13;;;2.90;;
11590;SDS011;5851;54.050;9.974;2023-07-09T07:26:05;4.68;;;3.40;;
11590;SDS011;5851;54.050;9.974;2023-07-09T07:28:34;3.08;;;2.85;;
11590;SDS011;5851;54.050;9.974;2023-07-09T07:31:02;3.75;;;3.00;;
11590;SDS011;5851;54.050;9.974;2023-07-09T07:33:30;4.97;;;3.20;;
11590;SDS011;5851;54.050;9.974;2023-07-09T07:35:57;4.03;;;2.95;;
11590;SDS011;5851;54.050;9.974;2023-07-09T07:38:25;4.72;;;3.45;;
11590;SDS011;5851;54.050;9.974;2023-07-09T07:40:52;3.90;;;2.90;;
11590;SDS011;5851;54.050;9.974;2023-07-09T07:43:19;4.10;;;2.92;;
11590;SDS011;5851;54.050;9.974;2023-07-09T07:45:47;3.08;;;2.78;;
11590;SDS011;5851;54.050;9.974;2023-07-09T07:48:14;3.83;;;2.97;;
11590;SDS011;5851;54.050;9.974;2023-07-09T07:50:41;6.57;;;3.10;;
11590;SDS011;5851;54.050;9.974;2023-07-09T07:53:08;4.20;;;2.90;;
11590;SDS011;5851;54.050;9.974;2023-07-09T07:55:36;3.85;;;2.97;;
11590;SDS011;5851;54.050;9.974;2023-07-09T07:58:03;4.28;;;3.03;;
11590;SDS011;5851;54.050;9.974;2023-07-09T08:00:30;5.20;;;2.72;;
11590;SDS011;5851;54.050;9.974;2023-07-09T08:02:57;4.55;;;3.20;;
11590;SDS011;5851;54.050;9.974;2023-07-09T08:05:24;4.95;;;3.10;;
11590;SDS011;5851;54.050;9.974;2023-07-09T08:07:51;5.13;;;3.25;;
11590;SDS011;5851;54.050;9.974;2023-07-09T08:10:18;3.75;;;2.85;;
11590;SDS011;5851;54.050;9.974;2023-07-09T08:12:46;3.42;;;3.10;;
11590;SDS011;5851;54.050;9.974;2023-07-09T08:15:13;4.32;;;3.03;;
11590;SDS011;5851;54.050;9.974;2023-07-09T08:17:41;3.90;;;2.97;;
11590;SDS011;5851;54.050;9.974;2023-07-09T08:20:08;3.30;;;2.92;;
11590;SDS011;5851;54.050;9.974;2023-07-09T08:22:36;3.58;;;2.90;;
11590;SDS011;5851;54.050;9.974;2023-07-09T08:25:04;3.25;;;2.95;;
11590;SDS011;5851;54.050;9.974;2023-07-09T08:27:31;3.40;;;3.10;;
11590;SDS011;5851;54.050;9.974;2023-07-09T08:29:59;3.22;;;2.92;;
11590;SDS011;5851;54.050;9.974;2023-07-09T08:32:26;3.28;;;2.97;;
11590;SDS011;5851;54.050;9.974;2023-07-09T08:34:54;3.70;;;2.70;;
11590;SDS011;5851;54.050;9.974;2023-07-09T08:37:21;3.88;;;3.20;;
11590;SDS011;5851;54.050;9.974;2023-07-09T08:39:48;3.83;;;3.20;;
11590;SDS011;5851;54.050;9.974;2023-07-09T08:42:16;4.63;;;3.05;;
11590;SDS011;5851;54.050;9.974;2023-07-09T08:44:58;2.88;;;2.67;;
11590;SDS011;5851;54.050;9.974;2023-07-09T08:47:37;3.38;;;2.97;;
11590;SDS011;5851;54.050;9.974;2023-07-09T08:50:14;3.90;;;3.03;;
11590;SDS011;5851;54.050;9.974;2023-07-09T08:52:44;4.00;;;3.35;;
11590;SDS011;5851;54.050;9.974;2023-07-09T08:55:17;5.40;;;3.30;;
11590;SDS011;5851;54.050;9.974;2023-07-09T08:57:46;6.25;;;3.20;;
11590;SDS011;5851;54.050;9.974;2023-07-09T09:00:18;3.70;;;3.10;;
11590;SDS011;5851;54.050;9.974;2023-07-09T09:02:50;5.57;;;3.03;;
11590;SDS011;5851;54.050;9.974;2023-07-09T09:05:19;4.40;;;3.60;;
11590;SDS011;5851;54.050;9.974;2023-07-09T09:07:49;3.88;;;3.30;;
11590;SDS011;5851;54.050;9.974;2023-07-09T09:10:21;4.65;;;3.28;;
11590;SDS011;5851;54.050;9.974;2023-07-09T09:13:02;3.97;;;3.30;;
11590;SDS011;5851;54.050;9.974;2023-07-09T09:15:36;4.93;;;3.42;;
11590;SDS011;5851;54.050;9.974;2023-07-09T09:18:12;8.25;;;3.30;;
11590;SDS011;5851;54.050;9.974;2023-07-09T09:20:46;4.53;;;3.20;;
11590;SDS011;5851;54.050;9.974;2023-07-09T09:23:17;3.78;;;3.47;;
11590;SDS011;5851;54.050;9.974;2023-07-09T09:25:46;4.85;;;3.47;;
11590;SDS011;5851;54.050;9.974;2023-07-09T09:28:17;3.92;;;3.47;;
11590;SDS011;5851;54.050;9.974;2023-07-09T09:30:45;4.18;;;3.45;;
11590;SDS011;5851;54.050;9.974;2023-07-09T09:33:12;3.90;;;3.50;;
11590;SDS011;5851;54.050;9.974;2023-07-09T09:35:44;5.53;;;3.70;;
11590;SDS011;5851;54.050;9.974;2023-07-09T09:38:13;4.28;;;3.47;;
11590;SDS011;5851;54.050;9.974;2023-07-09T09:40:43;4.40;;;3.72;;
11590;SDS011;5851;54.050;9.974;2023-07-09T09:43:11;4.00;;;3.45;;
11590;SDS011;5851;54.050;9.974;2023-07-09T09:45:40;5.30;;;3.30;;
11590;SDS011;5851;54.050;9.974;2023-07-09T09:48:13;4.03;;;3.63;;
11590;SDS011;5851;54.050;9.974;2023-07-09T09:50:41;3.78;;;3.40;;
11590;SDS011;5851;54.050;9.974;2023-07-09T09:53:11;4.93;;;3.38;;
11590;SDS011;5851;54.050;9.974;2023-07-09T09:55:45;4.07;;;3.67;;
11590;SDS011;5851;54.050;9.974;2023-07-09T09:58:13;3.75;;;3.25;;
11590;SDS011;5851;54.050;9.974;2023-07-09T10:00:46;3.63;;;3.30;;
11590;SDS011;5851;54.050;9.974;2023-07-09T10:03:17;5.35;;;3.83;;
11590;SDS011;5851;54.050;9.974;2023-07-09T10:05:45;3.75;;;3.45;;
11590;SDS011;5851;54.050;9.974;2023-07-09T10:08:18;5.18;;;3.22;;
11590;SDS011;5851;54.050;9.974;2023-07-09T10:10:53;4.13;;;3.70;;
11590;SDS011;5851;54.050;9.974;2023-07-09T10:13:32;4.18;;;3.78;;
11590;SDS011;5851;54.050;9.974;2023-07-09T10:16:05;4.68;;;3.78;;
11590;SDS011;5851;54.050;9.974;2023-07-09T10:18:40;5.53;;;3.30;;
11590;SDS011;5851;54.050;9.974;2023-07-09T10:21:18;6.20;;;3.47;;
11590;SDS011;5851;54.050;9.974;2023-07-09T10:23:55;4.15;;;3.40;;
11590;SDS011;5851;54.050;9.974;2023-07-09T10:26:36;4.00;;;3.60;;
11590;SDS011;5851;54.050;9.974;2023-07-09T10:29:31;4.93;;;3.53;;
11590;SDS011;5851;54.050;9.974;2023-07-09T10:32:11;4.35;;;3.35;;
11590;SDS011;5851;54.050;9.974;2023-07-09T10:34:50;4.05;;;3.60;;
11590;SDS011;5851;54.050;9.974;2023-07-09T10:37:30;4.50;;;3.90;;
11590;SDS011;5851;54.050;9.974;2023-07-09T10:40:11;4.97;;;3.78;;
11590;SDS011;5851;54.050;9.974;2023-07-09T10:42:43;5.00;;;3.70;;
11590;SDS011;5851;54.050;9.974;2023-07-09T10:45:13;4.13;;;3.70;;
11590;SDS011;5851;54.050;9.974;2023-07-09T10:47:47;4.15;;;3.70;;
11590;SDS011;5851;54.050;9.974;2023-07-09T10:50:22;5.15;;;3.60;;
11590;SDS011;5851;54.050;9.974;2023-07-09T10:52:54;4.75;;;3.63;;
11590;SDS011;5851;54.050;9.974;2023-07-09T10:55:26;6.28;;;4.13;;
11590;SDS011;5851;54.050;9.974;2023-07-09T10:57:59;5.18;;;3.92;;
11590;SDS011;5851;54.050;9.974;2023-07-09T11:00:32;5.03;;;3.70;;
11590;SDS011;5851;54.050;9.974;2023-07-09T11:03:03;5.47;;;3.55;;
11590;SDS011;5851;54.050;9.974;2023-07-09T11:05:36;4.03;;;3.60;;
11590;SDS011;5851;54.050;9.974;2023-07-09T11:08:05;7.07;;;3.90;;
11590;SDS011;5851;54.050;9.974;2023-07-09T11:10:36;8.00;;;4.22;;
11590;SDS011;5851;54.050;9.974;2023-07-09T11:13:09;4.68;;;4.20;;
11590;SDS011;5851;54.050;9.974;2023-07-09T11:15:41;5.10;;;4.15;;
11590;SDS011;5851;54.050;9.974;2023-07-09T11:18:13;4.30;;;3.85;;
11590;SDS011;5851;54.050;9.974;2023-07-09T11:20:58;4.50;;;4.10;;
11590;SDS011;5851;54.050;9.974;2023-07-09T11:23:35;5.70;;;4.60;;
11590;SDS011;5851;54.050;9.974;2023-07-09T11:26:10;5.50;;;4.55;;
11590;SDS011;5851;54.050;9.974;2023-07-09T11:28:47;6.68;;;4.03;;
11590;SDS011;5851;54.050;9.974;2023-07-09T11:31:20;6.10;;;3.80;;
11590;SDS011;5851;54.050;9.974;2023-07-09T11:33:56;4.50;;;4.10;;
11590;SDS011;5851;54.050;9.974;2023-07-09T11:36:28;4.47;;;4.00;;
11590;SDS011;5851;54.050;9.974;2023-07-09T11:38:56;5.50;;;4.40;;
11590;SDS011;5851;54.050;9.974;2023-07-09T11:41:28;4.30;;;3.92;;
11590;SDS011;5851;54.050;9.974;2023-07-09T11:44:05;4.28;;;3.88;;
11590;SDS011;5851;54.050;9.974;2023-07-09T11:46:48;4.53;;;4.10;;
11590;SDS011;5851;54.050;9.974;2023-07-09T11:49:21;4.30;;;3.90;;
11590;SDS011;5851;54.050;9.974;2023-07-09T11:51:54;4.30;;;3.90;;
11590;SDS011;5851;54.050;9.974;2023-07-09T11:54:25;6.38;;;4.60;;
11590;SDS011;5851;54.050;9.974;2023-07-09T11:56:54;4.88;;;4.38;;
11590;SDS011;5851;54.050;9.974;2023-07-09T11:59:23;6.50;;;4.47;;
11590;SDS011;5851;54.050;9.974;2023-07-09T12:01:50;5.35;;;4.40;;
11590;SDS011;5851;54.050;9.974;2023-07-09T12:04:20;4.93;;;4.13;;
11590;SDS011;5851;54.050;9.974;2023-07-09T12:06:57;5.05;;;4.43;;
11590;SDS011;5851;54.050;9.974;2023-07-09T12:09:30;4.30;;;3.88;;
11590;SDS011;5851;54.050;9.974;2023-07-09T12:11:58;5.50;;;4.10;;
11590;SDS011;5851;54.050;9.974;2023-07-09T12:14:25;4.85;;;4.35;;
11590;SDS011;5851;54.050;9.974;2023-07-09T12:16:52;5.38;;;4.43;;
11590;SDS011;5851;54.050;9.974;2023-07-09T12:19:20;5.50;;;4.50;;
11590;SDS011;5851;54.050;9.974;2023-07-09T12:21:49;6.28;;;4.20;;
11590;SDS011;5851;54.050;9.974;2023-07-09T12:24:21;5.18;;;4.30;;
11590;SDS011;5851;54.050;9.974;2023-07-09T12:26:51;4.93;;;4.10;;
11590;SDS011;5851;54.050;9.974;2023-07-09T12:29:18;4.85;;;3.92;;
11590;SDS011;5851;54.050;9.974;2023-07-09T12:31:45;5.00;;;4.43;;
11590;SDS011;5851;54.050;9.974;2023-07-09T12:34:12;4.78;;;4.38;;
11590;SDS011;5851;54.050;9.974;2023-07-09T12:36:41;5.90;;;4.65;;
11590;SDS011;5851;54.050;9.974;2023-07-09T12:39:12;4.93;;;4.53;;
11590;SDS011;5851;54.050;9.974;2023-07-09T12:41:42;5.35;;;4.13;;
11590;SDS011;5851;54.050;9.974;2023-07-09T12:44:14;6.00;;;4.60;;
11590;SDS011;5851;54.050;9.974;2023-07-09T12:46:43;5.00;;;4.38;;
11590;SDS011;5851;54.050;9.974;2023-07-09T12:49:17;5.38;;;4.35;;
11590;SDS011;5851;54.050;9.974;2023-07-09T12:51:48;4.72;;;4.30;;
11590;SDS011;5851;54.050;9.974;2023-07-09T12:54:16;5.75;;;4.72;;
11590;SDS011;5851;54.050;9.974;2023-07-09T12:56:46;6.93;;;4.68;;
11590;SDS011;5851;54.050;9.974;2023-07-09T12:59:17;8.10;;;4.65;;
11590;SDS011;5851;54.050;9.974;2023-07-09T13:01:48;6.28;;;4.60;;
11590;SDS011;5851;54.050;9.974;2023-07-09T13:04:16;5.07;;;4.22;;
11590;SDS011;5851;54.050;9.974;2023-07-09T13:06:44;4.75;;;4.35;;
11590;SDS011;5851;54.050;9.974;2023-07-09T13:09:14;5.55;;;4.40;;
11590;SDS011;5851;54.050;9.974;2023-07-09T13:11:47;5.57;;;4.53;;
11590;SDS011;5851;54.050;9.974;2023-07-09T13:14:19;5.97;;;4.10;;
11590;SDS011;5851;54.050;9.974;2023-07-09T13:16:47;5.18;;;4.68;;
11590;SDS011;5851;54.050;9.974;2023-07-09T13:19:15;6.22;;;4.57;;
11590;SDS011;5851;54.050;9.974;2023-07-09T13:21:42;5.32;;;4.53;;
11590;SDS011;5851;54.050;9.974;2023-07-09T13:24:11;5.68;;;4.57;;
11590;SDS011;5851;54.050;9.974;2023-07-09T13:26:43;4.95;;;4.30;;
11590;SDS011;5851;54.050;9.974;2023-07-09T13:29:13;4.75;;;4.32;;
11590;SDS011;5851;54.050;9.974;2023-07-09T13:31:40;5.32;;;4.43;;
11590;SDS011;5851;54.050;9.974;2023-07-09T13:34:08;5.55;;;4.88;;
11590;SDS011;5851;54.050;9.974;2023-07-09T13:36:45;5.32;;;4.80;;
11590;SDS011;5851;54.050;9.974;2023-07-09T13:39:12;5.32;;;4.30;;
11590;SDS011;5851;54.050;9.974;2023-07-09T13:41:39;5.82;;;4.40;;
11590;SDS011;5851;54.050;9.974;2023-07-09T13:44:09;6.25;;;4.45;;
11590;SDS011;5851;54.050;9.974;2023-07-09T13:46:40;5.68;;;4.53;;
11590;SDS011;5851;54.050;9.974;2023-07-09T13:49:10;5.05;;;4.55;;
11590;SDS011;5851;54.050;9.974;2023-07-09T13:51:39;5.13;;;4.60;;
11590;SDS011;5851;54.050;9.974;2023-07-09T13:54:12;4.85;;;4.35;;
11590;SDS011;5851;54.050;9.974;2023-07-09T13:56:46;5.85;;;4.32;;
11590;SDS011;5851;54.050;9.974;2023-07-09T13:59:17;5.40;;;4.43;;
11590;SDS011;5851;54.050;9.974;2023-07-09T14:01:45;6.88;;;4.50;;
11590;SDS011;5851;54.050;9.974;2023-07-09T14:04:13;5.93;;;4.25;;
11590;SDS011;5851;54.050;9.974;2023-07-09T14:06:42;4.80;;;3.88;;
11590;SDS011;5851;54.050;9.974;2023-07-09T14:09:11;4.78;;;4.28;;
11590;SDS011;5851;54.050;9.974;2023-07-09T14:11:40;6.30;;;4.40;;
11590;SDS011;5851;54.050;9.974;2023-07-09T14:14:17;8.13;;;4.40;;
11590;SDS011;5851;54.050;9.974;2023-07-09T14:16:46;6.47;;;4.47;;
11590;SDS011;5851;54.050;9.974;2023-07-09T14:19:14;5.20;;;4.65;;
11590;SDS011;5851;54.050;9.974;2023-07-09T14:21:42;7.05;;;4.28;;
11590;SDS011;5851;54.050;9.974;2023-07-09T14:24:17;5.40;;;4.13;;
11590;SDS011;5851;54.050;9.974;2023-07-09T14:26:46;5.38;;;4.38;;
11590;SDS011;5851;54.050;9.974;2023-07-09T14:29:13;5.50;;;4.55;;
11590;SDS011;5851;54.050;9.974;2023-07-09T14:31:42;5.95;;;4.85;;
11590;SDS011;5851;54.050;9.974;2023-07-09T14:34:19;7.20;;;5.00;;
11590;SDS011;5851;54.050;9.974;2023-07-09T14:36:48;5.10;;;4.57;;
11590;SDS011;5851;54.050;9.974;2023-07-09T14:39:15;7.07;;;4.63;;
11590;SDS011;5851;54.050;9.974;2023-07-09T14:41:42;6.10;;;5.35;;
11590;SDS011;5851;54.050;9.974;2023-07-09T14:44:15;6.15;;;5.05;;
11590;SDS011;5851;54.050;9.974;2023-07-09T14:46:49;6.32;;;5.40;;
11590;SDS011;5851;54.050;9.974;2023-07-09T14:49:17;7.80;;;5.50;;
11590;SDS011;5851;54.050;9.974;2023-07-09T14:51:44;6.20;;;5.60;;
11590;SDS011;5851;54.050;9.974;2023-07-09T14:54:17;7.68;;;5.13;;
11590;SDS011;5851;54.050;9.974;2023-07-09T14:56:46;10.75;;;6.63;;
11590;SDS011;5851;54.050;9.974;2023-07-09T14:59:13;6.00;;;5.40;;
11590;SDS011;5851;54.050;9.974;2023-07-09T15:01:40;6.57;;;4.95;;
11590;SDS011;5851;54.050;9.974;2023-07-09T15:04:18;6.60;;;5.50;;
11590;SDS011;5851;54.050;9.974;2023-07-09T15:06:54;6.00;;;5.22;;
11590;SDS011;5851;54.050;9.974;2023-07-09T15:09:22;6.63;;;5.07;;
11590;SDS011;5851;54.050;9.974;2023-07-09T15:11:50;6.43;;;5.25;;
11590;SDS011;5851;54.050;9.974;2023-07-09T15:14:18;5.95;;;4.82;;
11590;SDS011;5851;54.050;9.974;2023-07-09T15:16:45;7.30;;;5.35;;
11590;SDS011;5851;54.050;9.974;2023-07-09T15:19:16;6.55;;;4.95;;
11590;SDS011;5851;54.050;9.974;2023-07-09T15:21:44;6.97;;;4.90;;